createdAt,value
2023-01-29T00:01:36.832Z,12.75
2023-01-29T00:03:44.917Z,12.82
2023-01-29T00:05:50.057Z,12.43
2023-01-29T00:07:56.628Z,12.55
2023-01-29T00:10:01.756Z,12.43
2023-01-29T00:12:13.134Z,12.20
2023-01-29T00:14:22.566Z,12.48
2023-01-29T00:16:27.655Z,12.07
2023-01-29T00:18:33.291Z,12.43
2023-01-29T00:20:38.207Z,14.30
2023-01-29T00:22:43.130Z,13.25
2023-01-29T00:24:55.533Z,11.40
2023-01-29T00:27:02.403Z,14.07
2023-01-29T00:29:07.638Z,12.10
2023-01-29T00:31:18.718Z,13.85
2023-01-29T00:33:25.024Z,12.15
2023-01-29T00:35:31.067Z,13.63
2023-01-29T00:37:39.170Z,12.75
2023-01-29T00:39:48.111Z,14.15
2023-01-29T00:42:05.586Z,12.25
2023-01-29T00:44:23.512Z,11.65
2023-01-29T00:46:31.073Z,11.30
2023-01-29T00:48:36.333Z,13.45
2023-01-29T00:50:41.395Z,12.93
2023-01-29T00:52:46.618Z,12.75
2023-01-29T00:54:51.755Z,13.07
2023-01-29T00:56:56.902Z,12.45
2023-01-29T00:59:01.907Z,12.27
2023-01-29T01:01:07.278Z,15.30
2023-01-29T01:03:18.236Z,14.07
2023-01-29T01:05:31.244Z,13.50
2023-01-29T01:07:37.005Z,13.30
2023-01-29T01:09:55.652Z,12.18
2023-01-29T01:12:01.018Z,12.80
2023-01-29T01:14:08.940Z,12.50
2023-01-29T01:16:16.633Z,11.77
2023-01-29T01:18:25.424Z,11.82
2023-01-29T01:20:32.492Z,12.95
2023-01-29T01:22:39.954Z,13.23
2023-01-29T01:24:53.807Z,13.18
2023-01-29T01:26:58.705Z,12.90
2023-01-29T01:29:03.690Z,12.93
2023-01-29T01:31:14.920Z,12.07
2023-01-29T01:33:20.667Z,12.60
2023-01-29T01:35:28.648Z,12.38
2023-01-29T01:37:33.693Z,11.95
2023-01-29T01:39:39.006Z,12.70
2023-01-29T01:41:44.278Z,11.35
2023-01-29T01:43:54.561Z,11.57
2023-01-29T01:46:02.175Z,10.48
2023-01-29T01:48:14.464Z,11.77
2023-01-29T01:50:25.136Z,11.60
2023-01-29T01:52:35.880Z,10.18
2023-01-29T01:54:40.664Z,11.32
2023-01-29T01:56:52.871Z,11.57
2023-01-29T01:59:00.192Z,10.43
2023-01-29T02:01:08.989Z,10.10
2023-01-29T02:03:29.350Z,10.35
2023-01-29T02:05:50.666Z,9.73
2023-01-29T02:08:10.715Z,11.70
2023-01-29T02:10:19.030Z,11.63
2023-01-29T02:12:25.374Z,10.77
2023-01-29T02:14:32.197Z,11.48
2023-01-29T02:16:38.114Z,11.05
2023-01-29T02:18:43.159Z,12.60
2023-01-29T02:21:00.286Z,12.27
2023-01-29T02:23:49.696Z,11.63
2023-01-29T02:26:13.291Z,13.15
2023-01-29T02:28:42.303Z,12.48
2023-01-29T02:30:57.270Z,11.82
2023-01-29T02:33:09.184Z,12.98
2023-01-29T02:35:28.683Z,14.48
2023-01-29T02:37:39.595Z,14.55
2023-01-29T02:39:56.284Z,15.45
2023-01-29T02:42:12.215Z,15.43
2023-01-29T02:44:27.600Z,14.88
2023-01-29T02:46:38.063Z,15.52
2023-01-29T02:48:48.942Z,15.52
2023-01-29T02:51:01.868Z,16.50
2023-01-29T02:53:15.951Z,16.45
2023-01-29T02:55:27.072Z,16.83
2023-01-29T02:57:36.974Z,17.42
2023-01-29T02:59:51.443Z,15.68
2023-01-29T03:02:01.443Z,17.63
2023-01-29T03:04:12.561Z,16.95
2023-01-29T03:06:28.443Z,16.75
2023-01-29T03:08:44.484Z,17.45
2023-01-29T03:10:59.877Z,17.92
2023-01-29T03:13:09.650Z,17.58
2023-01-29T03:15:26.878Z,17.30
2023-01-29T03:17:40.621Z,17.40
2023-01-29T03:19:51.517Z,16.60
2023-01-29T03:22:02.145Z,16.55
2023-01-29T03:24:24.459Z,17.80
2023-01-29T03:26:41.847Z,16.95
2023-01-29T03:29:02.906Z,16.83
2023-01-29T03:31:27.538Z,17.92
2023-01-29T03:33:36.667Z,14.38
2023-01-29T03:35:50.102Z,16.55
2023-01-29T03:37:57.134Z,16.98
2023-01-29T03:40:02.119Z,16.80
2023-01-29T03:42:16.577Z,17.38
2023-01-29T03:44:29.878Z,18.08
2023-01-29T03:46:47.605Z,17.30
2023-01-29T03:48:59.080Z,17.58
2023-01-29T03:51:18.237Z,17.63
2023-01-29T03:53:28.622Z,19.40
2023-01-29T03:55:41.219Z,17.17
2023-01-29T03:57:57.903Z,16.33
2023-01-29T04:00:09.712Z,15.93
2023-01-29T04:02:28.181Z,16.17
2023-01-29T04:04:37.130Z,17.05
2023-01-29T04:06:46.713Z,17.73
2023-01-29T04:08:59.050Z,16.88
2023-01-29T04:11:13.662Z,17.15
2023-01-29T04:13:24.897Z,15.93
2023-01-29T04:15:36.382Z,18.27
2023-01-29T04:17:48.125Z,17.58
2023-01-29T04:19:54.490Z,17.02
2023-01-29T04:22:06.879Z,17.77
2023-01-29T04:24:15.682Z,16.92
2023-01-29T04:26:34.433Z,18.77
2023-01-29T04:28:54.234Z,15.95
2023-01-29T04:31:07.901Z,17.33
2023-01-29T04:33:32.663Z,17.05
2023-01-29T04:35:53.467Z,18.02
2023-01-29T04:38:09.345Z,16.90
2023-01-29T04:40:30.912Z,17.52
2023-01-29T04:42:47.767Z,16.92
2023-01-29T04:45:01.953Z,17.60
2023-01-29T04:47:22.104Z,17.50
2023-01-29T04:49:39.473Z,16.80
2023-01-29T04:51:53.468Z,15.85
2023-01-29T04:54:05.514Z,16.77
2023-01-29T04:56:16.779Z,17.73
2023-01-29T04:58:29.769Z,15.95
2023-01-29T05:00:40.603Z,15.95
2023-01-29T05:02:48.086Z,17.63
2023-01-29T05:04:58.985Z,16.33
2023-01-29T05:07:07.142Z,15.65
2023-01-29T05:09:13.027Z,16.42
2023-01-29T05:11:24.385Z,16.35
2023-01-29T05:13:32.327Z,15.77
2023-01-29T05:15:45.381Z,15.65
2023-01-29T05:20:02.505Z,16.73
2023-01-29T05:22:12.228Z,16.83
2023-01-29T05:24:19.880Z,16.35
2023-01-29T05:26:37.539Z,16.90
2023-01-29T05:28:42.632Z,16.45
2023-01-29T05:30:51.944Z,17.15
2023-01-29T05:32:57.568Z,17.50
2023-01-29T05:35:05.296Z,15.82
2023-01-29T05:37:10.615Z,16.95
2023-01-29T05:39:15.543Z,16.40
2023-01-29T05:41:24.436Z,16.10
2023-01-29T05:43:29.546Z,16.40
2023-01-29T05:45:37.617Z,16.67
2023-01-29T05:47:42.799Z,16.98
2023-01-29T05:49:48.083Z,17.55
2023-01-29T05:51:56.005Z,16.92
2023-01-29T05:54:00.955Z,15.60
2023-01-29T05:56:07.383Z,16.83
2023-01-29T05:58:12.561Z,16.75
2023-01-29T06:00:23.708Z,15.00
2023-01-29T06:02:28.981Z,15.02
2023-01-29T06:04:33.996Z,15.73
2023-01-29T06:06:41.852Z,15.77
2023-01-29T06:08:49.553Z,15.45
2023-01-29T06:10:56.262Z,15.95
2023-01-29T06:13:03.588Z,17.00
2023-01-29T06:15:12.154Z,16.08
2023-01-29T06:17:16.947Z,17.35
2023-01-29T06:19:21.854Z,18.23
2023-01-29T06:21:27.208Z,17.65
2023-01-29T06:23:32.102Z,14.80
2023-01-29T06:25:39.921Z,16.75
2023-01-29T06:27:45.429Z,17.48
2023-01-29T06:29:53.025Z,16.05
2023-01-29T06:31:58.062Z,19.17
2023-01-29T06:34:03.936Z,17.30
2023-01-29T06:36:13.193Z,16.58
2023-01-29T06:38:18.469Z,16.67
2023-01-29T06:40:25.904Z,16.75
2023-01-29T06:42:33.398Z,17.02
2023-01-29T06:44:38.348Z,17.98
2023-01-29T06:46:43.493Z,16.35
2023-01-29T06:48:48.678Z,15.77
2023-01-29T06:50:55.488Z,16.15
2023-01-29T06:53:03.638Z,16.92
2023-01-29T06:55:12.851Z,17.15
2023-01-29T06:57:20.530Z,16.55
2023-01-29T06:59:28.621Z,17.67
2023-01-29T07:01:36.692Z,17.27
2023-01-29T07:03:44.298Z,17.13
2023-01-29T07:05:58.029Z,18.45
2023-01-29T07:08:04.119Z,18.58
2023-01-29T07:10:12.194Z,17.02
2023-01-29T07:12:17.283Z,17.27
2023-01-29T07:14:22.151Z,17.40
2023-01-29T07:16:30.296Z,18.00
2023-01-29T07:18:35.625Z,17.67
2023-01-29T07:20:41.766Z,18.30
2023-01-29T07:22:46.682Z,16.75
2023-01-29T07:24:51.644Z,17.92
2023-01-29T07:26:57.020Z,17.92
2023-01-29T07:29:03.011Z,18.20
2023-01-29T07:31:08.642Z,17.83
2023-01-29T07:33:17.333Z,18.13
2023-01-29T07:35:22.324Z,17.95
2023-01-29T07:37:27.332Z,17.90
2023-01-29T07:39:33.215Z,17.70
2023-01-29T07:41:38.518Z,19.08
2023-01-29T07:43:43.930Z,16.33
2023-01-29T07:45:48.785Z,16.85
2023-01-29T07:47:56.081Z,18.65
2023-01-29T07:50:03.851Z,19.38
2023-01-29T07:52:10.548Z,17.52
2023-01-29T07:54:15.421Z,21.02
2023-01-29T07:56:20.685Z,16.83
2023-01-29T07:58:26.183Z,18.23
2023-01-29T08:00:32.079Z,18.83
2023-01-29T08:02:37.187Z,18.30
2023-01-29T08:04:42.289Z,18.13
2023-01-29T08:06:49.768Z,18.80
2023-01-29T08:08:56.162Z,17.58
2023-01-29T08:11:07.106Z,19.17
2023-01-29T08:13:12.359Z,18.50
2023-01-29T08:15:19.141Z,18.77
2023-01-29T08:17:24.041Z,19.00
2023-01-29T08:19:29.963Z,18.33
2023-01-29T08:21:36.261Z,20.20
2023-01-29T08:23:44.094Z,18.42
2023-01-29T08:25:49.210Z,18.25
2023-01-29T08:27:54.309Z,17.83
2023-01-29T08:30:00.720Z,19.33
2023-01-29T08:32:08.103Z,18.05
2023-01-29T08:34:12.961Z,19.17
2023-01-29T08:36:21.055Z,20.23
2023-01-29T08:38:25.853Z,19.02
2023-01-29T08:40:36.375Z,18.85
2023-01-29T08:42:41.859Z,17.83
2023-01-29T08:44:46.663Z,19.25
2023-01-29T08:46:51.921Z,19.05
2023-01-29T08:48:56.943Z,19.42
2023-01-29T08:51:07.466Z,19.67
2023-01-29T08:53:14.781Z,19.42
2023-01-29T08:55:20.137Z,20.25
2023-01-29T08:57:30.705Z,20.13
2023-01-29T08:59:36.966Z,18.75
2023-01-29T09:01:41.981Z,19.77
2023-01-29T09:03:47.144Z,20.60
2023-01-29T09:05:52.905Z,22.38
2023-01-29T09:07:59.704Z,19.48
2023-01-29T09:10:05.014Z,22.75
2023-01-29T09:12:10.561Z,20.52
2023-01-29T09:14:18.412Z,20.90
2023-01-29T09:16:23.417Z,21.75
2023-01-29T09:18:28.497Z,21.30
2023-01-29T09:20:33.516Z,22.45
2023-01-29T09:22:41.752Z,22.17
2023-01-29T09:24:48.102Z,20.52
2023-01-29T09:26:52.927Z,20.67
2023-01-29T09:28:58.664Z,21.52
2023-01-29T09:31:07.327Z,21.83
2023-01-29T09:33:12.361Z,20.83
2023-01-29T09:35:17.789Z,22.58
2023-01-29T09:37:24.090Z,21.27
2023-01-29T09:39:30.104Z,22.35
2023-01-29T09:41:46.714Z,23.50
2023-01-29T09:43:56.293Z,21.15
2023-01-29T09:46:08.498Z,22.80
2023-01-29T09:48:15.694Z,22.98
2023-01-29T09:50:24.836Z,24.00
2023-01-29T09:52:33.384Z,20.88
2023-01-29T09:54:54.797Z,24.13
2023-01-29T09:57:00.920Z,22.55
2023-01-29T09:59:08.455Z,23.95
2023-01-29T10:01:25.401Z,24.60
2023-01-29T10:03:46.689Z,23.08
2023-01-29T10:06:02.678Z,25.88
2023-01-29T10:08:48.033Z,24.55
2023-01-29T10:10:54.643Z,24.55
2023-01-29T10:13:10.802Z,26.10
2023-01-29T10:15:32.956Z,23.05
2023-01-29T10:17:56.799Z,25.48
2023-01-29T10:20:28.654Z,27.13
2023-01-29T10:22:59.791Z,23.02
2023-01-29T10:25:07.131Z,24.40
2023-01-29T10:27:20.099Z,23.58
2023-01-29T10:29:25.424Z,26.60
2023-01-29T10:31:36.645Z,24.63
2023-01-29T10:34:00.980Z,25.92
2023-01-29T10:36:12.768Z,25.13
2023-01-29T10:38:41.903Z,25.48
2023-01-29T10:40:54.802Z,26.27
2023-01-29T10:43:07.800Z,25.15
2023-01-29T10:45:26.684Z,24.48
2023-01-29T10:47:46.728Z,26.17
2023-01-29T10:50:11.958Z,26.30
2023-01-29T10:52:34.202Z,24.15
2023-01-29T10:54:53.274Z,26.15
2023-01-29T10:57:10.995Z,24.92
2023-01-29T10:59:33.955Z,25.50
2023-01-29T11:01:39.867Z,25.55
2023-01-29T11:03:49.351Z,25.60
2023-01-29T11:06:02.776Z,26.90
2023-01-29T11:08:16.778Z,26.15
2023-01-29T11:10:25.838Z,25.88
2023-01-29T11:12:33.989Z,26.65
2023-01-29T11:14:46.915Z,26.73
2023-01-29T11:16:52.402Z,29.40
2023-01-29T11:19:00.383Z,26.85
2023-01-29T11:21:08.310Z,27.52
2023-01-29T11:23:30.185Z,25.58
2023-01-29T11:25:35.656Z,27.77
2023-01-29T11:27:46.767Z,27.80
2023-01-29T11:29:52.901Z,22.70
2023-01-29T11:31:58.762Z,25.40
2023-01-29T11:34:08.568Z,26.05
2023-01-29T11:36:45.309Z,27.15
2023-01-29T11:38:50.634Z,24.33
2023-01-29T11:40:59.794Z,27.33
2023-01-29T11:43:21.050Z,23.27
2023-01-29T11:45:32.751Z,24.05
2023-01-29T11:47:39.916Z,28.60
2023-01-29T11:49:49.469Z,27.73
2023-01-29T11:52:05.659Z,26.80
2023-01-29T11:54:20.615Z,26.42
2023-01-29T11:56:30.417Z,24.08
2023-01-29T11:58:38.498Z,27.73
2023-01-29T12:00:48.861Z,28.17
2023-01-29T12:02:58.912Z,27.65
2023-01-29T12:05:08.650Z,26.55
2023-01-29T12:07:20.912Z,26.23
2023-01-29T12:09:30.259Z,23.37
2023-01-29T12:11:36.937Z,25.60
2023-01-29T12:13:43.436Z,24.38
2023-01-29T12:15:54.714Z,26.08
2023-01-29T12:18:11.786Z,25.80
2023-01-29T12:20:21.872Z,25.25
2023-01-29T12:22:46.150Z,26.52
2023-01-29T12:24:58.789Z,25.42
2023-01-29T12:27:17.452Z,25.27
2023-01-29T12:29:35.020Z,22.15
2023-01-29T12:31:46.901Z,23.15
2023-01-29T12:33:56.867Z,24.77
2023-01-29T12:36:11.013Z,25.27
2023-01-29T12:38:21.987Z,21.08
2023-01-29T12:40:33.271Z,23.27
2023-01-29T12:42:41.364Z,20.92
2023-01-29T12:44:50.000Z,23.40
2023-01-29T12:46:58.697Z,24.15
2023-01-29T12:49:10.654Z,22.38
2023-01-29T12:51:24.613Z,22.75
2023-01-29T12:53:39.823Z,22.63
2023-01-29T12:55:54.268Z,24.83
2023-01-29T12:58:01.073Z,25.52
2023-01-29T13:00:11.988Z,23.02
2023-01-29T13:02:26.771Z,22.58
2023-01-29T13:04:49.849Z,24.20
2023-01-29T13:07:00.175Z,23.90
2023-01-29T13:09:12.674Z,23.13
2023-01-29T13:11:22.622Z,24.88
2023-01-29T13:13:33.809Z,22.70
2023-01-29T13:15:42.109Z,24.65
2023-01-29T13:17:51.228Z,23.63
2023-01-29T13:20:00.827Z,22.38
2023-01-29T13:22:14.091Z,22.88
2023-01-29T13:24:25.311Z,26.08
2023-01-29T13:26:31.218Z,23.30
2023-01-29T13:28:40.152Z,23.92
2023-01-29T13:30:45.672Z,23.33
2023-01-29T13:32:55.730Z,24.33
2023-01-29T13:35:03.903Z,19.88
2023-01-29T13:37:17.552Z,22.58
2023-01-29T13:39:44.959Z,23.80
2023-01-29T13:41:50.278Z,22.98
2023-01-29T13:43:55.608Z,22.42
2023-01-29T13:46:01.606Z,23.08
2023-01-29T13:48:15.737Z,22.63
2023-01-29T13:50:31.406Z,22.83
2023-01-29T13:52:44.709Z,22.98
2023-01-29T13:55:00.792Z,23.88
2023-01-29T13:57:09.051Z,22.98
2023-01-29T13:59:48.349Z,20.63
2023-01-29T14:02:24.785Z,21.35
2023-01-29T14:04:33.340Z,22.38
2023-01-29T14:06:54.643Z,18.08
2023-01-29T14:09:03.910Z,23.77
2023-01-29T14:11:41.515Z,21.13
2023-01-29T14:13:52.852Z,21.50
2023-01-29T14:16:27.657Z,20.17
2023-01-29T14:18:37.852Z,20.27
2023-01-29T14:20:51.832Z,21.52
2023-01-29T14:23:00.487Z,20.50
2023-01-29T14:25:08.531Z,21.45
2023-01-29T14:27:28.846Z,20.17
2023-01-29T14:29:47.797Z,20.23
2023-01-29T14:31:57.154Z,22.08
2023-01-29T14:34:06.896Z,20.70
2023-01-29T14:36:18.941Z,21.45
2023-01-29T14:38:27.250Z,19.20
2023-01-29T14:40:38.243Z,20.83
2023-01-29T14:43:00.056Z,19.02
2023-01-29T14:45:12.749Z,20.17
2023-01-29T14:47:22.526Z,19.92
2023-01-29T14:49:54.180Z,21.58
2023-01-29T14:52:00.934Z,22.00
2023-01-29T14:54:16.933Z,21.10
2023-01-29T14:56:33.323Z,18.73
2023-01-29T14:58:49.611Z,21.48
2023-01-29T15:01:00.574Z,21.00
2023-01-29T15:03:08.178Z,19.50
2023-01-29T15:05:22.654Z,23.50
2023-01-29T15:07:36.367Z,22.00
2023-01-29T15:09:45.794Z,20.20
2023-01-29T15:11:59.071Z,19.05
2023-01-29T15:14:17.177Z,19.90
2023-01-29T15:16:30.258Z,20.30
2023-01-29T15:18:40.565Z,22.17
2023-01-29T15:20:46.995Z,20.98
2023-01-29T15:22:52.151Z,20.73
2023-01-29T15:25:10.728Z,22.35
2023-01-29T15:27:24.044Z,20.33
2023-01-29T15:31:38.620Z,26.00
2023-01-29T15:33:48.884Z,21.98
2023-01-29T15:36:08.427Z,22.23
2023-01-29T15:38:20.483Z,21.88
2023-01-29T15:40:25.804Z,21.83
2023-01-29T15:42:31.588Z,23.73
2023-01-29T15:44:38.091Z,20.50
2023-01-29T15:46:50.817Z,23.17
2023-01-29T15:48:57.412Z,23.08
2023-01-29T15:51:05.509Z,24.10
2023-01-29T15:53:17.396Z,23.63
2023-01-29T15:55:25.679Z,21.77
2023-01-29T15:57:37.482Z,24.75
2023-01-29T15:59:51.988Z,23.88
2023-01-29T16:02:20.756Z,24.52
2023-01-29T16:04:30.394Z,21.77
2023-01-29T16:06:41.933Z,23.92
2023-01-29T16:08:49.719Z,24.00
2023-01-29T16:11:00.112Z,23.90
2023-01-29T16:13:44.758Z,25.25
2023-01-29T16:16:00.157Z,24.10
2023-01-29T16:18:24.328Z,23.63
2023-01-29T16:20:46.869Z,24.75
2023-01-29T16:22:51.862Z,23.57
2023-01-29T16:25:04.215Z,23.20
2023-01-29T16:27:14.363Z,18.92
2023-01-29T16:29:22.565Z,24.90
2023-01-29T16:31:30.961Z,20.15
2023-01-29T16:33:41.019Z,23.58
2023-01-29T16:35:46.698Z,25.63
2023-01-29T16:37:53.632Z,26.85
2023-01-29T16:39:59.960Z,22.20
2023-01-29T16:42:25.398Z,21.70
2023-01-29T16:44:38.044Z,23.60
2023-01-29T16:46:51.263Z,22.70
2023-01-29T16:49:00.780Z,21.77
2023-01-29T16:51:12.242Z,23.50
2023-01-29T16:53:23.522Z,21.63
2023-01-29T16:55:29.881Z,23.73
2023-01-29T16:57:36.962Z,23.17
2023-01-29T16:59:43.781Z,23.10
2023-01-29T17:01:49.623Z,23.00
2023-01-29T17:04:05.460Z,23.55
2023-01-29T17:06:15.741Z,19.92
2023-01-29T17:08:27.520Z,25.60
2023-01-29T17:10:37.157Z,18.15
2023-01-29T17:12:42.591Z,22.73
2023-01-29T17:14:56.779Z,24.92
2023-01-29T17:17:07.043Z,24.10
2023-01-29T17:19:24.474Z,23.10
2023-01-29T17:21:30.403Z,24.63
2023-01-29T17:23:35.406Z,24.52
2023-01-29T17:25:41.050Z,18.90
2023-01-29T17:27:51.926Z,23.65
2023-01-29T17:29:56.963Z,22.15
2023-01-29T17:32:02.655Z,22.92
2023-01-29T17:34:14.407Z,22.95
2023-01-29T17:36:22.258Z,22.45
2023-01-29T17:38:28.688Z,21.15
2023-01-29T17:40:40.956Z,23.95
2023-01-29T17:42:47.131Z,20.47
2023-01-29T17:44:52.140Z,21.60
2023-01-29T17:46:58.818Z,19.70
2023-01-29T17:49:04.616Z,21.45
2023-01-29T17:51:17.399Z,22.85
2023-01-29T17:53:43.241Z,23.33
2023-01-29T17:55:51.908Z,20.55
2023-01-29T17:57:56.857Z,20.33
2023-01-29T18:00:05.643Z,21.17
2023-01-29T18:02:29.709Z,20.95
2023-01-29T18:04:38.638Z,21.80
2023-01-29T18:06:44.971Z,21.05
2023-01-29T18:08:52.970Z,21.85
2023-01-29T18:10:58.624Z,22.58
2023-01-29T18:13:03.974Z,22.00
2023-01-29T18:15:11.034Z,19.27
2023-01-29T18:17:22.372Z,20.92
2023-01-29T18:19:31.355Z,19.27
2023-01-29T18:21:43.005Z,19.85
2023-01-29T18:23:54.337Z,17.92
2023-01-29T18:26:00.900Z,17.75
2023-01-29T18:28:08.143Z,19.08
2023-01-29T18:30:16.393Z,19.25
2023-01-29T18:32:23.241Z,19.23
2023-01-29T18:34:29.395Z,16.00
2023-01-29T18:36:37.144Z,20.23
2023-01-29T18:38:42.134Z,18.40
2023-01-29T18:40:50.331Z,17.05
2023-01-29T18:42:58.823Z,17.83
2023-01-29T18:45:04.220Z,16.50
2023-01-29T18:47:09.817Z,18.25
2023-01-29T18:49:15.451Z,19.48
2023-01-29T18:51:20.609Z,17.48
2023-01-29T18:53:25.706Z,17.63
2023-01-29T18:55:33.875Z,18.60
2023-01-29T18:58:26.067Z,15.50
2023-01-29T19:00:08.315Z,17.52
2023-01-29T19:02:16.669Z,16.05
2023-01-29T19:04:23.047Z,16.38
2023-01-29T19:06:28.814Z,16.33
2023-01-29T19:08:34.305Z,18.63
2023-01-29T19:10:46.150Z,17.02
2023-01-29T19:12:54.254Z,18.70
2023-01-29T19:15:00.280Z,17.52
2023-01-29T19:17:05.544Z,16.20
2023-01-29T19:19:12.184Z,15.52
2023-01-29T19:21:19.209Z,17.27
2023-01-29T19:23:24.747Z,16.33
2023-01-29T19:25:30.470Z,16.48
2023-01-29T19:27:35.645Z,19.25
2023-01-29T19:29:43.216Z,17.63
2023-01-29T19:31:51.084Z,16.95
2023-01-29T19:33:56.091Z,15.68
2023-01-29T19:36:03.018Z,18.23
2023-01-29T19:38:08.373Z,17.63
2023-01-29T19:40:17.108Z,16.58
2023-01-29T19:42:22.561Z,16.55
2023-01-29T19:44:28.020Z,17.45
2023-01-29T19:46:36.770Z,16.77
2023-01-29T19:48:41.818Z,16.63
2023-01-29T19:50:47.198Z,16.65
2023-01-29T19:52:53.493Z,16.27
2023-01-29T19:54:59.152Z,16.83
2023-01-29T19:57:04.620Z,16.08
2023-01-29T19:59:10.447Z,16.00
2023-01-29T20:01:18.494Z,16.73
2023-01-29T20:03:26.766Z,17.42
2023-01-29T20:05:33.086Z,15.95
2023-01-29T20:07:40.352Z,16.33
2023-01-29T20:09:45.758Z,18.13
2023-01-29T20:11:52.045Z,17.70
2023-01-29T20:13:57.461Z,18.10
2023-01-29T20:16:05.700Z,19.05
2023-01-29T20:18:12.081Z,18.55
2023-01-29T20:20:22.194Z,16.98
2023-01-29T20:22:29.881Z,18.87
2023-01-29T20:24:40.067Z,18.00
2023-01-29T20:26:49.324Z,16.75
2023-01-29T20:28:58.718Z,19.08
2023-01-29T20:31:04.308Z,19.30
2023-01-29T20:33:12.644Z,18.38
2023-01-29T20:35:20.658Z,18.70
2023-01-29T20:37:25.450Z,18.08
2023-01-29T20:39:30.413Z,18.33
2023-01-29T20:41:35.659Z,18.48
2023-01-29T20:43:40.764Z,18.67
2023-01-29T20:45:45.971Z,18.92
2023-01-29T20:47:51.854Z,17.83
2023-01-29T20:49:56.942Z,17.50
2023-01-29T20:52:06.498Z,16.75
2023-01-29T20:54:12.720Z,19.38
2023-01-29T20:56:32.078Z,17.45
2023-01-29T20:58:45.330Z,17.60
2023-01-29T21:00:50.151Z,16.83
2023-01-29T21:02:55.347Z,18.45
2023-01-29T21:05:00.471Z,17.48
2023-01-29T21:07:08.179Z,19.30
2023-01-29T21:09:13.634Z,18.30
2023-01-29T21:11:18.524Z,17.58
2023-01-29T21:13:23.671Z,17.23
2023-01-29T21:15:29.527Z,16.63
2023-01-29T21:17:37.522Z,17.23
2023-01-29T21:19:45.737Z,16.85
2023-01-29T21:21:53.613Z,17.02
2023-01-29T21:24:01.410Z,15.20
2023-01-29T21:26:07.498Z,15.15
2023-01-29T21:28:12.298Z,14.18
2023-01-29T21:30:21.045Z,14.85
2023-01-29T21:32:28.963Z,16.65
2023-01-29T21:34:33.920Z,15.35
2023-01-29T21:36:42.164Z,16.45
2023-01-29T21:38:47.052Z,15.70
2023-01-29T21:40:54.450Z,14.02
2023-01-29T21:43:13.730Z,15.32
2023-01-29T21:45:18.948Z,15.10
2023-01-29T21:47:23.972Z,15.75
2023-01-29T21:49:30.093Z,14.75
2023-01-29T21:51:35.328Z,12.32
2023-01-29T21:53:40.611Z,13.57
2023-01-29T21:55:45.708Z,13.10
2023-01-29T21:57:54.050Z,11.05
2023-01-29T21:59:59.858Z,14.73
2023-01-29T22:02:07.510Z,14.38
2023-01-29T22:04:12.727Z,14.50
2023-01-29T22:06:22.707Z,12.50
2023-01-29T22:08:28.579Z,14.00
2023-01-29T22:10:36.791Z,12.70
2023-01-29T22:12:41.963Z,12.68
2023-01-29T22:14:49.721Z,11.60
2023-01-29T22:16:54.695Z,12.07
2023-01-29T22:19:00.948Z,9.77
2023-01-29T22:21:06.587Z,10.20
2023-01-29T22:23:12.719Z,8.85
2023-01-29T22:25:20.657Z,8.25
2023-01-29T22:27:25.712Z,8.13
2023-01-29T22:29:30.445Z,7.78
2023-01-29T22:31:37.782Z,8.48
2023-01-29T22:33:42.743Z,8.15
2023-01-29T22:35:56.068Z,9.18
2023-01-29T22:38:00.883Z,7.50
2023-01-29T22:40:08.675Z,8.57
2023-01-29T22:42:13.888Z,7.90
2023-01-29T22:44:18.963Z,7.28
2023-01-29T22:46:27.388Z,7.75
2023-01-29T22:48:37.383Z,6.97
2023-01-29T22:50:42.789Z,6.63
2023-01-29T22:52:54.248Z,6.78
2023-01-29T22:55:01.687Z,6.50
2023-01-29T22:57:06.870Z,6.40
2023-01-29T22:59:14.632Z,6.25
2023-01-29T23:01:24.219Z,6.25
2023-01-29T23:03:30.128Z,6.38
2023-01-29T23:05:37.627Z,5.97
2023-01-29T23:07:42.980Z,6.60
2023-01-29T23:09:50.905Z,5.43
2023-01-29T23:11:55.777Z,6.15
2023-01-29T23:14:00.847Z,6.50
2023-01-29T23:16:05.932Z,5.90
2023-01-29T23:18:11.594Z,6.03
2023-01-29T23:20:20.753Z,6.28
2023-01-29T23:22:28.871Z,6.03
2023-01-29T23:24:33.982Z,6.38
2023-01-29T23:26:53.545Z,5.57
2023-01-29T23:28:59.708Z,6.75
2023-01-29T23:31:04.767Z,6.05
2023-01-29T23:33:12.655Z,6.00
2023-01-29T23:35:18.986Z,7.13
2023-01-29T23:37:23.882Z,6.07
2023-01-29T23:39:31.600Z,6.63
2023-01-29T23:41:36.589Z,6.25
2023-01-29T23:43:41.885Z,6.85
2023-01-29T23:45:47.101Z,6.55
2023-01-29T23:47:52.258Z,6.15
2023-01-29T23:49:57.090Z,6.70
2023-01-29T23:52:02.921Z,6.13
2023-01-29T23:54:08.303Z,6.70
2023-01-29T23:56:16.052Z,7.50
2023-01-29T23:58:21.095Z,7.28
